Time;durP1;ratioP1;P1;durP2;ratioP2;P2;SDS_P1;SDS_P2;PMS_P1;PMS_P2;Temp;Humidity;BMP_temperature;BMP_pressure;BME280_temperature;BME280_humidity;BME280_pressure;Samples;Min_cycle;Max_cycle;Signal;HPM_P1;HPM_P2
2023/08/01 04:22:31;;;;;;;6.78;3.30;;;;;;;16.97;100.00;98854.88;5089556;27;20905;-68
2023/08/01 04:24:57;;;;;;;9.55;3.45;;;;;;;17.01;100.00;98855.97;5089580;28;20114;-68
2023/08/01 04:27:22;;;;;;;5.65;3.20;;;;;;;17.03;100.00;98859.25;5089449;28;20036;-68
2023/08/01 04:29:48;;;;;;;8.27;3.80;;;;;;;17.07;100.00;98849.59;5089140;28;20505;-68
2023/08/01 04:32:15;;;;;;;5.65;3.42;;;;;;;17.15;100.00;98850.25;5089361;28;20472;-68
2023/08/01 04:34:43;;;;;;;6.53;3.33;;;;;;;17.23;100.00;98849.81;5089383;28;20442;-68
2023/08/01 04:37:10;;;;;;;9.18;3.92;;;;;;;17.27;100.00;98867.06;5089153;28;20073;-68
2023/08/01 04:39:36;;;;;;;4.70;2.85;;;;;;;17.31;100.00;98860.97;5088958;28;20592;-68
2023/08/01 04:42:01;;;;;;;4.70;2.95;;;;;;;17.36;100.00;98865.59;5089154;28;20131;-68
2023/08/01 04:44:27;;;;;;;6.53;2.80;;;;;;;17.39;100.00;98870.47;5089055;28;20040;-69
2023/08/01 04:46:53;;;;;;;7.53;2.95;;;;;;;17.42;100.00;98878.06;5089091;28;20072;-68
2023/08/01 04:49:18;;;;;;;4.40;2.40;;;;;;;17.40;100.00;98864.00;5084638;28;20060;-68
2023/08/01 04:51:44;;;;;;;4.65;3.03;;;;;;;17.39;100.00;98865.09;5088907;28;20514;-68
2023/08/01 04:54:10;;;;;;;6.28;2.67;;;;;;;17.41;100.00;98854.06;5087760;28;20032;-68
2023/08/01 04:56:35;;;;;;;6.30;2.83;;;;;;;17.43;100.00;98838.50;5088840;28;20447;-68
2023/08/01 04:59:01;;;;;;;4.30;2.90;;;;;;;17.43;100.00;98844.69;5088546;28;20123;-68
2023/08/01 05:01:27;;;;;;;5.03;2.78;;;;;;;17.40;100.00;98839.78;5087268;28;20035;-59
2023/08/01 05:03:52;;;;;;;4.10;2.65;;;;;;;17.39;100.00;98827.41;5088821;28;20071;-65
2023/08/01 05:06:18;;;;;;;5.78;2.58;;;;;;;17.41;100.00;98821.75;5088708;28;20040;-66
2023/08/01 05:08:44;;;;;;;5.38;3.40;;;;;;;17.39;100.00;98803.19;5088371;28;20044;-65
2023/08/01 05:11:09;;;;;;;5.57;2.78;;;;;;;17.40;100.00;98815.56;5088646;28;20036;-66
2023/08/01 05:13:34;;;;;;;4.45;2.90;;;;;;;17.43;100.00;98828.53;5088593;28;20043;-65
2023/08/01 05:16:00;;;;;;;4.60;3.13;;;;;;;17.43;100.00;98825.84;5083140;28;20065;-66
2023/08/01 05:18:25;;;;;;;6.32;3.08;;;;;;;17.43;100.00;98814.28;5067942;28;20039;-64
2023/08/01 05:20:51;;;;;;;4.40;2.60;;;;;;;17.42;100.00;98815.34;5066688;28;20643;-65
2023/08/01 05:23:16;;;;;;;3.83;2.72;;;;;;;17.43;100.00;98809.69;5068158;28;20131;-65
2023/08/01 05:25:42;;;;;;;5.18;2.83;;;;;;;17.43;100.00;98815.09;5068019;28;20085;-65
2023/08/01 05:28:07;;;;;;;5.57;3.13;;;;;;;17.45;100.00;98817.50;5066900;28;20037;-64
2023/08/01 05:30:33;;;;;;;5.90;3.15;;;;;;;17.50;100.00;98834.53;5067765;28;20489;-65
2023/08/01 05:32:58;;;;;;;4.75;2.70;;;;;;;17.49;100.00;98838.28;5058549;28;20509;-64
2023/08/01 05:35:23;;;;;;;5.78;2.85;;;;;;;17.49;100.00;98845.56;5054579;28;20099;-64
2023/08/01 05:37:49;;;;;;;5.50;3.08;;;;;;;17.45;100.00;98849.81;5054680;28;20037;-65
2023/08/01 05:40:14;;;;;;;6.35;2.92;;;;;;;17.46;100.00;98846.84;5053182;28;20052;-65
2023/08/01 05:42:40;;;;;;;4.15;2.80;;;;;;;17.38;100.00;98855.38;5053322;28;20071;-65
2023/08/01 05:45:06;;;;;;;7.57;3.65;;;;;;;17.34;100.00;98859.63;5054473;28;20036;-65
2023/08/01 05:47:31;;;;;;;5.82;2.63;;;;;;;17.29;100.00;98873.03;5054695;28;20043;-65
2023/08/01 05:49:56;;;;;;;5.70;2.97;;;;;;;17.24;100.00;98876.47;5054101;28;20037;-65
2023/08/01 05:52:22;;;;;;;7.82;3.30;;;;;;;17.16;100.00;98878.78;5054368;28;20037;-65
2023/08/01 05:54:48;;;;;;;7.03;4.30;;;;;;;17.11;100.00;98892.97;5054467;28;20044;-65
2023/08/01 05:57:13;;;;;;;7.65;3.40;;;;;;;17.06;100.00;98901.78;5054207;28;20037;-65
2023/08/01 05:59:39;;;;;;;6.82;4.13;;;;;;;16.94;100.00;98893.00;5053943;28;20394;-66
2023/08/01 06:02:04;;;;;;;8.38;3.55;;;;;;;16.98;100.00;98899.53;5054158;28;20048;-66
2023/08/01 06:04:30;;;;;;;6.97;3.70;;;;;;;16.94;100.00;98895.69;5053961;28;20041;-65
2023/08/01 06:06:56;;;;;;;8.25;3.70;;;;;;;16.93;100.00;98891.38;5054025;28;20052;-64
2023/08/01 06:09:21;;;;;;;7.85;3.90;;;;;;;16.76;100.00;98886.03;5053800;28;20048;-65
2023/08/01 06:11:46;;;;;;;7.32;3.63;;;;;;;16.67;100.00;98889.34;5054017;28;20029;-65
2023/08/01 06:14:12;;;;;;;6.60;3.97;;;;;;;16.61;100.00;98864.25;5053956;28;20571;-64
2023/08/01 06:16:37;;;;;;;6.72;4.18;;;;;;;16.52;100.00;98858.50;5053850;28;20037;-65
2023/08/01 06:19:03;;;;;;;8.38;4.25;;;;;;;16.42;100.00;98850.25;5053582;28;20486;-65
2023/08/01 06:21:28;;;;;;;11.30;5.18;;;;;;;16.38;100.00;98851.00;5053709;28;20032;-65
2023/08/01 06:23:54;;;;;;;8.30;4.15;;;;;;;16.37;100.00;98852.06;5053803;28;20405;-64
2023/08/01 06:26:19;;;;;;;7.00;4.03;;;;;;;16.35;100.00;98846.09;5053680;28;20037;-64
2023/08/01 06:28:44;;;;;;;7.03;3.78;;;;;;;16.35;100.00;98832.66;5053454;28;20033;-65
2023/08/01 06:31:10;;;;;;;7.60;4.22;;;;;;;16.34;100.00;98829.16;5053622;28;20393;-64
2023/08/01 06:33:35;;;;;;;7.03;3.85;;;;;;;16.35;100.00;98836.16;5053566;28;20098;-64
2023/08/01 06:36:01;;;;;;;8.80;4.70;;;;;;;16.38;100.00;98840.25;5053541;28;20039;-64
2023/08/01 06:38:26;;;;;;;6.75;4.28;;;;;;;16.40;100.00;98854.25;5053263;28;20072;-65
2023/08/01 06:40:51;;;;;;;9.55;4.45;;;;;;;16.42;100.00;98860.19;5053447;28;20501;-64
2023/08/01 06:43:17;;;;;;;10.30;4.75;;;;;;;16.41;100.00;98851.31;5053377;28;20045;-65
2023/08/01 06:45:42;;;;;;;9.73;4.85;;;;;;;16.44;100.00;98834.72;5052537;28;20105;-65
2023/08/01 06:48:08;;;;;;;10.30;4.40;;;;;;;16.43;100.00;98827.72;5053340;28;20040;-64
2023/08/01 06:50:34;;;;;;;10.13;4.85;;;;;;;16.46;100.00;98832.59;5053056;28;20037;-65
2023/08/01 06:53:00;;;;;;;8.77;4.75;;;;;;;16.48;100.00;98835.03;5053315;28;20091;-65
2023/08/01 06:55:26;;;;;;;10.15;4.63;;;;;;;16.50;100.00;98838.31;5053099;28;20041;-64
2023/08/01 06:57:51;;;;;;;7.80;4.10;;;;;;;16.53;100.00;98832.41;5053134;28;20040;-66
2023/08/01 07:00:17;;;;;;;9.35;4.63;;;;;;;16.55;100.00;98831.09;5051499;28;20037;-65
2023/08/01 07:02:42;;;;;;;8.68;4.38;;;;;;;16.62;100.00;98839.00;5053142;28;20052;-64
2023/08/01 07:05:08;;;;;;;8.43;4.60;;;;;;;16.64;100.00;98833.41;5053098;28;20048;-64
2023/08/01 07:07:33;;;;;;;12.52;4.95;;;;;;;16.69;100.00;98845.03;5053031;28;20044;-64
2023/08/01 07:09:59;;;;;;;10.75;4.97;;;;;;;16.71;100.00;98839.44;5052680;28;20041;-65
2023/08/01 07:12:24;;;;;;;9.43;4.07;;;;;;;16.75;100.00;98848.63;5052814;28;20033;-64
2023/08/01 07:14:49;;;;;;;8.30;4.03;;;;;;;16.79;100.00;98855.97;5053045;28;20044;-64
2023/08/01 07:17:15;;;;;;;6.10;3.92;;;;;;;16.79;100.00;98847.09;5052665;28;20048;-64
2023/08/01 07:19:40;;;;;;;10.00;3.88;;;;;;;16.76;100.00;98840.34;5052485;28;20036;-64
2023/08/01 07:22:05;;;;;;;5.63;3.30;;;;;;;16.77;100.00;98841.97;5052588;28;20525;-65
2023/08/01 07:24:31;;;;;;;7.65;3.67;;;;;;;16.76;100.00;98842.22;5052778;28;20040;-64
2023/08/01 07:26:56;;;;;;;6.38;3.47;;;;;;;16.76;100.00;98842.22;5051456;28;20041;-64
2023/08/01 07:29:23;;;;;;;6.33;3.53;;;;;;;16.78;100.00;98857.03;5052331;28;20517;-65
2023/08/01 07:31:48;;;;;;;6.65;3.75;;;;;;;16.68;100.00;98850.66;5052558;28;20322;-64
2023/08/01 07:34:14;;;;;;;7.43;3.80;;;;;;;16.73;100.00;98869.56;5052793;28;20120;-65
2023/08/01 07:36:39;;;;;;;5.93;3.58;;;;;;;16.71;100.00;98869.81;5052427;28;20502;-64
2023/08/01 07:39:05;;;;;;;8.90;3.90;;;;;;;16.70;100.00;98876.28;5052189;28;20474;-64
2023/08/01 07:41:30;;;;;;;6.18;3.28;;;;;;;16.70;100.00;98870.09;5052372;28;20418;-65
2023/08/01 07:43:55;;;;;;;5.80;3.45;;;;;;;16.72;100.00;98871.44;5051178;28;20044;-64
2023/08/01 07:46:21;;;;;;;5.28;3.30;;;;;;;16.74;100.00;98868.50;5052257;28;20045;-63
2023/08/01 07:48:46;;;;;;;5.88;3.70;;;;;;;16.76;100.00;98874.47;5052147;28;20037;-64
2023/08/01 07:51:12;;;;;;;5.43;3.20;;;;;;;16.79;100.00;98871.28;5034494;28;20410;-65
2023/08/01 07:53:37;;;;;;;5.85;3.13;;;;;;;16.79;100.00;98873.97;5052175;28;20037;-64
2023/08/01 07:56:03;;;;;;;6.20;2.60;;;;;;;16.81;100.00;98875.34;5054002;28;20040;-64
2023/08/01 07:58:29;;;;;;;5.72;2.72;;;;;;;16.78;100.00;98883.09;5061416;28;20028;-64
2023/08/01 08:00:55;;;;;;;5.63;2.75;;;;;;;16.76;100.00;98887.91;5060283;28;20079;-64
2023/08/01 08:03:23;;;;;;;5.15;2.55;;;;;;;16.76;100.00;98869.09;5059475;28;20044;-64
2023/08/01 08:05:49;;;;;;;4.43;2.65;;;;;;;16.77;100.00;98855.41;5061627;28;20071;-64
2023/08/01 08:08:15;;;;;;;5.95;2.67;;;;;;;16.79;100.00;98863.22;5059992;28;20112;-63
2023/08/01 08:10:40;;;;;;;3.97;2.33;;;;;;;16.78;100.00;98862.41;5060313;28;20111;-64
2023/08/01 08:13:05;;;;;;;5.30;2.83;;;;;;;16.85;100.00;98872.19;5061574;28;20143;-64
2023/08/01 08:15:34;;;;;;;4.15;2.88;;;;;;;16.85;100.00;98870.28;5059607;28;20041;-64
2023/08/01 08:18:01;;;;;;;6.50;3.28;;;;;;;16.84;100.00;98879.44;5062588;28;20054;-65
2023/08/01 08:20:26;;;;;;;4.30;3.42;;;;;;;16.83;100.00;98887.75;5071349;28;20063;-64
2023/08/01 08:22:52;;;;;;;7.60;3.50;;;;;;;16.86;100.00;98895.31;5071945;28;20041;-65
2023/08/01 08:25:17;;;;;;;5.43;2.83;;;;;;;16.85;100.00;98894.50;5067885;28;20049;-64
2023/08/01 08:27:43;;;;;;;5.53;3.20;;;;;;;16.85;100.00;98905.25;5061643;28;20090;-65
2023/08/01 08:30:08;;;;;;;5.32;2.80;;;;;;;16.80;100.00;98913.25;5059867;28;20038;-65
2023/08/01 08:32:35;;;;;;;7.18;2.83;;;;;;;16.75;100.00;98905.09;5059937;28;20040;-65
2023/08/01 08:35:00;;;;;;;5.38;3.08;;;;;;;16.75;100.00;98919.34;5061431;28;20028;-65
2023/08/01 08:37:26;;;;;;;4.82;2.83;;;;;;;16.74;100.00;98906.16;5059761;28;20055;-66
2023/08/01 08:39:51;;;;;;;4.22;2.67;;;;;;;16.79;100.00;98909.75;5058674;28;20485;-65
2023/08/01 08:42:19;;;;;;;6.15;2.65;;;;;;;16.88;100.00;98912.00;5061370;28;20115;-65
2023/08/01 08:44:44;;;;;;;;;;;;;;;16.93;100.00;98923.66;5059959;28;20078;-64
2023/08/01 08:47:12;;;;;;;5.03;2.72;;;;;;;16.98;100.00;98920.22;5060300;28;19916;-65
2023/08/01 08:49:39;;;;;;;3.20;1.98;;;;;;;17.05;100.00;98926.25;5059632;28;20056;-65
2023/08/01 08:52:05;;;;;;;2.78;2.08;;;;;;;17.11;100.00;98936.03;5059472;28;20486;-64
2023/08/01 08:54:31;;;;;;;3.40;2.15;;;;;;;17.18;100.00;98935.84;5060550;28;20523;-64
2023/08/01 08:56:58;;;;;;;3.47;1.92;;;;;;;17.28;100.00;98934.13;5060881;28;20041;-64
2023/08/01 08:59:25;;;;;;;3.40;1.70;;;;;;;17.44;100.00;98929.75;5058925;28;20498;-64
2023/08/01 09:01:50;;;;;;;2.80;1.73;;;;;;;17.62;100.00;98940.22;5060061;28;20478;-65
2023/08/01 09:04:16;;;;;;;2.83;1.40;;;;;;;17.72;100.00;98942.25;5060916;28;20048;-65
2023/08/01 09:06:46;;;;;;;2.38;1.80;;;;;;;17.90;100.00;98947.31;5068123;28;20032;-63
2023/08/01 09:09:13;;;;;;;2.33;1.35;;;;;;;18.15;100.00;98940.56;5074716;28;20032;-63
2023/08/01 09:11:46;;;;;;;1.80;1.30;;;;;;;18.34;100.00;98939.16;5073915;28;20022;-62
2023/08/01 09:14:11;;;;;;;1.75;1.20;;;;;;;18.42;100.00;98932.47;5069471;28;20545;-63
2023/08/01 09:16:37;;;;;;;1.45;0.95;;;;;;;18.68;100.00;98938.91;5074468;28;20076;-66
2023/08/01 09:19:07;;;;;;;2.15;0.90;;;;;;;18.86;100.00;98937.72;5062459;28;20029;-66
2023/08/01 09:21:39;;;;;;;1.33;0.98;;;;;;;18.93;100.00;98943.69;5045791;28;20021;-64
2023/08/01 09:24:12;;;;;;;1.92;1.05;;;;;;;18.99;100.00;98939.97;5061768;28;20041;-64
2023/08/01 09:26:39;;;;;;;3.35;0.90;;;;;;;19.11;100.00;98948.69;5063215;28;20032;-63
2023/08/01 09:29:04;;;;;;;1.52;0.73;;;;;;;19.39;100.00;98952.09;5064437;28;20458;-66
2023/08/01 09:31:41;;;;;;;0.93;0.70;;;;;;;19.62;100.00;98957.06;5062961;28;20033;-66
2023/08/01 09:34:18;;;;;;;1.13;0.80;;;;;;;19.91;100.00;98964.78;5062687;28;20444;-64
2023/08/01 09:36:44;;;;;;;1.55;0.80;;;;;;;20.02;100.00;98963.75;5061128;28;20509;-64
2023/08/01 09:39:16;;;;;;;1.75;0.90;;;;;;;20.18;100.00;98967.28;5063914;28;20040;-64
2023/08/01 09:41:42;;;;;;;1.50;0.90;;;;;;;20.46;100.00;98966.00;5063225;28;20075;-64
2023/08/01 09:44:16;;;;;;;1.25;0.77;;;;;;;20.72;100.00;98970.34;5062513;28;20075;-64
2023/08/01 09:46:42;;;;;;;1.25;0.90;;;;;;;20.70;100.00;98975.22;5062186;28;20392;-65
2023/08/01 09:49:09;;;;;;;2.08;0.88;;;;;;;20.91;100.00;98972.53;5054773;28;20040;-65
2023/08/01 09:51:47;;;;;;;1.25;0.80;;;;;;;21.05;100.00;98968.19;5063790;28;20401;-65
2023/08/01 09:54:12;;;;;;;1.38;0.85;;;;;;;21.17;100.00;98973.31;5063367;28;20029;-65
2023/08/01 09:56:39;;;;;;;1.45;0.73;;;;;;;21.15;100.00;98968.19;5062828;28;20396;-65
2023/08/01 09:59:05;;;;;;;0.82;0.60;;;;;;;21.24;100.00;98980.06;5062497;28;20043;-64
2023/08/01 10:01:33;;;;;;;1.23;0.82;;;;;;;21.32;98.57;98986.84;5062493;28;20409;-65
2023/08/01 10:03:59;;;;;;;1.50;1.08;;;;;;;21.43;100.00;98991.16;5062652;28;20123;-65
2023/08/01 10:06:29;;;;;;;1.25;0.80;;;;;;;21.62;100.00;98988.69;5063779;28;20040;-65
2023/08/01 10:08:54;;;;;;;1.80;0.73;;;;;;;22.01;94.92;98993.41;5062720;28;20040;-64
2023/08/01 10:11:21;;;;;;;1.33;0.77;;;;;;;22.30;91.89;98990.84;5062140;28;20021;-64
2023/08/01 10:13:47;;;;;;;1.55;0.73;;;;;;;22.13;96.33;99000.16;5073876;28;20051;-63
2023/08/01 10:16:14;;;;;;;2.08;1.00;;;;;;;21.95;95.65;99003.47;5073911;28;20028;-64
2023/08/01 10:18:40;;;;;;;1.83;0.90;;;;;;;21.76;95.11;99002.44;5072357;28;20040;-63
2023/08/01 10:21:16;;;;;;;1.13;0.70;;;;;;;22.01;93.50;99007.78;5073848;28;20028;-64
2023/08/01 10:23:43;;;;;;;4.63;1.30;;;;;;;22.28;98.59;99010.09;5074007;28;20046;-64
2023/08/01 10:26:10;;;;;;;1.55;0.98;;;;;;;22.23;94.25;99017.44;5072608;28;20036;-64
2023/08/01 10:28:39;;;;;;;2.42;0.90;;;;;;;21.97;89.19;99014.81;5073545;28;20036;-63
2023/08/01 10:31:14;;;;;;;1.50;0.90;;;;;;;21.74;88.82;99016.28;5073686;28;20047;-64
2023/08/01 10:33:43;;;;;;;0.82;0.80;;;;;;;21.45;86.62;99020.69;5073682;28;20040;-65
2023/08/01 10:36:18;;;;;;;1.52;0.93;;;;;;;21.22;91.14;99024.75;5073654;28;20510;-64
2023/08/01 10:38:52;;;;;;;2.75;1.20;;;;;;;21.25;87.35;99014.16;5073232;28;20167;-64
2023/08/01 10:41:35;;;;;;;2.78;1.30;;;;;;;21.45;83.10;99023.38;5073615;28;20020;-64
2023/08/01 10:44:09;;;;;;;5.45;1.45;;;;;;;21.73;81.04;99017.38;5073534;28;20112;-65
2023/08/01 10:46:51;;;;;;;3.15;1.25;;;;;;;22.07;78.67;99008.56;5073349;28;20508;-64
2023/08/01 10:49:18;;;;;;;2.40;1.48;;;;;;;22.29;76.51;99017.16;5072993;28;20072;-64
2023/08/01 10:51:45;;;;;;;4.40;1.42;;;;;;;22.65;75.91;99015.03;5073376;28;20480;-63
2023/08/01 10:54:24;;;;;;;4.50;1.47;;;;;;;22.81;76.02;99018.44;5072283;28;20540;-64
2023/08/01 10:56:51;;;;;;;3.03;1.67;;;;;;;23.42;72.43;99017.97;5073083;28;20044;-65
2023/08/01 10:59:17;;;;;;;3.45;1.52;;;;;;;23.59;71.48;99022.13;5072961;28;20032;-63
2023/08/01 11:01:48;;;;;;;2.42;1.27;;;;;;;23.86;69.15;99019.66;5073101;28;20389;-65
2023/08/01 11:04:18;;;;;;;5.05;1.60;;;;;;;23.98;65.89;99014.63;5073122;28;20079;-62
2023/08/01 11:06:48;;;;;;;5.60;1.77;;;;;;;24.04;68.42;99026.25;5072969;28;20131;-63
2023/08/01 11:09:21;;;;;;;5.35;2.28;;;;;;;24.39;65.14;99029.63;5072739;28;20393;-63
2023/08/01 11:11:54;;;;;;;3.97;1.30;;;;;;;24.86;61.67;99032.22;5072731;28;20029;-64
2023/08/01 11:14:24;;;;;;;3.45;1.60;;;;;;;24.76;61.10;99031.56;5073133;28;20502;-63
2023/08/01 11:16:50;;;;;;;5.88;1.90;;;;;;;23.96;61.89;99029.63;5073230;28;20059;-63
2023/08/01 11:19:29;;;;;;;2.47;1.90;;;;;;;23.65;62.42;99031.88;5072568;28;20032;-64
2023/08/01 11:21:59;;;;;;;4.03;1.67;;;;;;;23.42;63.02;99039.69;5072504;28;20123;-64
2023/08/01 11:24:26;;;;;;;3.30;1.58;;;;;;;23.49;65.67;99034.72;5072742;28;20086;-64
2023/08/01 11:26:54;;;;;;;5.03;1.85;;;;;;;22.99;62.48;99042.22;5072490;28;20120;-64
2023/08/01 11:29:20;;;;;;;3.60;1.95;;;;;;;22.86;64.00;99045.59;5071160;28;20135;-64
2023/08/01 11:31:56;;;;;;;4.57;1.63;;;;;;;23.19;62.79;99051.31;5072170;28;20044;-64
2023/08/01 11:34:22;;;;;;;3.53;1.70;;;;;;;23.43;67.68;99038.59;5066608;28;20110;-64
2023/08/01 11:36:48;;;;;;;5.15;2.30;;;;;;;23.26;66.41;99051.78;5060695;28;20473;-64
2023/08/01 11:39:14;;;;;;;5.82;1.83;;;;;;;23.16;63.87;99058.13;5070225;28;20036;-64
2023/08/01 11:41:42;;;;;;;4.03;2.13;;;;;;;23.53;62.55;99045.81;5062679;28;20074;-64
2023/08/01 11:44:10;;;;;;;5.75;1.88;;;;;;;24.02;59.61;99042.88;5044141;28;20029;-64
2023/08/01 11:46:37;;;;;;;4.30;2.47;;;;;;;24.69;59.43;99052.91;5066413;28;20432;-64
2023/08/01 11:49:03;;;;;;;3.40;1.80;;;;;;;25.38;61.11;99056.72;5072074;28;20040;-64
2023/08/01 11:51:29;;;;;;;3.95;1.92;;;;;;;25.84;50.01;99042.28;5072459;28;20040;-64
2023/08/01 11:54:02;;;;;;;3.53;1.70;;;;;;;26.08;53.54;99048.34;5069042;28;20079;-64
2023/08/01 11:56:28;;;;;;;4.85;2.55;;;;;;;26.62;48.26;99049.38;5061105;28;20040;-64
2023/08/01 11:58:53;;;;;;;3.53;1.60;;;;;;;26.84;47.77;99047.78;5062442;28;20035;-64
2023/08/01 12:01:19;;;;;;;4.88;1.75;;;;;;;26.71;45.94;99046.72;5061249;28;20069;-64
2023/08/01 12:03:46;;;;;;;4.38;2.30;;;;;;;26.52;46.65;99049.59;5061567;28;20028;-64
2023/08/01 12:06:13;;;;;;;3.80;1.90;;;;;;;26.16;46.49;99036.72;5062851;28;20034;-64
2023/08/01 12:08:41;;;;;;;2.28;1.42;;;;;;;25.49;45.76;99046.44;5061266;28;20040;-64
2023/08/01 12:11:18;;;;;;;3.75;1.70;;;;;;;25.49;47.37;99040.97;5060072;28;20032;-64
2023/08/01 12:13:43;;;;;;;3.58;1.48;;;;;;;24.88;50.74;99053.69;5061694;28;20053;-64
2023/08/01 12:16:09;;;;;;;3.17;1.70;;;;;;;24.31;49.62;99048.19;5059426;28;20032;-65
2023/08/01 12:18:37;;;;;;;3.42;1.45;;;;;;;23.99;52.83;99054.31;5062220;28;20047;-64
2023/08/01 12:21:05;;;;;;;2.25;1.42;;;;;;;23.73;52.36;99045.63;5060118;28;20056;-64
2023/08/01 12:23:31;;;;;;;3.85;1.77;;;;;;;23.70;50.47;99039.97;5060797;28;20032;-64
2023/08/01 12:25:56;;;;;;;5.22;1.98;;;;;;;24.03;53.17;99035.53;5060801;28;20033;-64
2023/08/01 12:28:21;;;;;;;3.95;1.65;;;;;;;24.75;51.91;99036.19;5061624;28;20036;-64
2023/08/01 12:30:48;;;;;;;3.20;1.60;;;;;;;24.98;50.74;99034.47;5057701;28;20529;-65
2023/08/01 12:33:13;;;;;;;4.00;1.73;;;;;;;26.08;51.33;99034.69;5051943;28;20052;-65
2023/08/01 12:35:41;;;;;;;3.83;1.55;;;;;;;26.44;45.39;99033.97;5051827;28;20493;-65
2023/08/01 12:38:06;;;;;;;;;;;;;;;27.02;44.27;99044.06;5052187;28;20124;-65
2023/08/01 12:40:32;;;;;;;3.07;1.30;;;;;;;27.28;42.12;99049.75;5051632;28;19963;-65
2023/08/01 12:42:57;;;;;;;3.60;1.40;;;;;;;27.30;44.34;99042.03;5053475;28;20041;-65
2023/08/01 12:45:23;;;;;;;2.70;1.45;;;;;;;27.57;43.07;99041.06;5055912;28;20036;-64
2023/08/01 12:47:49;;;;;;;5.90;1.65;;;;;;;27.58;40.90;99037.19;5055533;28;20045;-64
2023/08/01 12:50:14;;;;;;;2.80;1.30;;;;;;;27.59;39.98;99027.88;5055367;28;20067;-65
2023/08/01 12:52:40;;;;;;;3.92;1.42;;;;;;;27.65;39.74;99034.84;5056013;28;20068;-65
2023/08/01 12:55:05;;;;;;;3.90;1.60;;;;;;;28.21;40.36;99036.00;5055843;28;20041;-65
2023/08/01 12:57:31;;;;;;;3.13;1.58;;;;;;;27.70;39.92;99042.91;5055397;28;20407;-63
2023/08/01 12:59:56;;;;;;;2.40;1.23;;;;;;;27.85;41.35;99034.31;5055239;28;20497;-65
2023/08/01 13:02:22;;;;;;;2.55;1.45;;;;;;;27.29;41.11;99035.75;5055444;28;20621;-65
2023/08/01 13:04:47;;;;;;;3.05;1.73;;;;;;;27.49;40.07;99028.94;5054088;28;20041;-65
2023/08/01 13:07:13;;;;;;;3.28;1.23;;;;;;;27.79;39.91;99045.69;5055491;28;20041;-63
2023/08/01 13:09:38;;;;;;;2.53;1.52;;;;;;;27.76;42.94;99025.25;5055034;28;20124;-65
2023/08/01 13:12:04;;;;;;;4.03;1.65;;;;;;;27.84;40.48;99040.91;5055149;28;20052;-63
2023/08/01 13:14:31;;;;;;;4.80;1.73;;;;;;;27.65;41.37;99034.84;5055167;28;20069;-63
2023/08/01 13:16:58;;;;;;;4.47;1.40;;;;;;;27.53;41.26;99035.41;5055088;28;20039;-59
2023/08/01 13:19:23;;;;;;;3.03;1.07;;;;;;;26.92;41.97;99045.13;5054803;28;20041;-62
2023/08/01 13:21:48;;;;;;;4.40;1.98;;;;;;;26.52;42.67;99036.75;5054978;28;20041;-62
2023/08/01 13:24:14;;;;;;;2.92;1.70;;;;;;;26.69;43.89;99033.38;5054845;28;20099;-62
2023/08/01 13:26:39;;;;;;;3.20;1.42;;;;;;;26.75;44.85;99028.63;5054877;28;20045;-62
2023/08/01 13:29:04;;;;;;;4.78;1.65;;;;;;;26.48;43.90;99045.88;5054595;28;20049;-64
2023/08/01 13:31:30;;;;;;;3.10;1.27;;;;;;;25.95;45.59;99043.69;5054795;28;20062;-64
2023/08/01 13:33:55;;;;;;;4.18;1.50;;;;;;;25.41;47.36;99045.22;5054797;28;20560;-62
2023/08/01 13:36:21;;;;;;;4.72;1.50;;;;;;;24.96;45.24;99038.59;5054685;28;20091;-63
2023/08/01 13:38:47;;;;;;;2.70;1.65;;;;;;;24.58;46.48;99053.06;5054380;28;20397;-63
2023/08/01 13:41:12;;;;;;;3.10;1.30;;;;;;;24.20;47.05;99044.03;5054675;28;20087;-63
2023/08/01 13:43:37;;;;;;;2.03;1.25;;;;;;;24.39;47.12;99052.25;5054578;28;20383;-63
2023/08/01 13:46:17;;;;;;;3.67;1.92;;;;;;;24.41;47.88;99033.69;5054436;28;20044;-63
2023/08/01 13:48:43;;;;;;;4.68;1.38;;;;;;;24.46;48.70;99049.97;5054323;28;20029;-63
2023/08/01 13:51:09;;;;;;;4.50;1.57;;;;;;;24.67;48.08;99036.06;5053063;28;20024;-63
2023/08/01 13:53:40;;;;;;;2.63;1.63;;;;;;;24.27;47.41;99051.81;5054138;28;20640;-63
2023/08/01 13:56:07;;;;;;;4.65;1.40;;;;;;;24.28;47.78;99046.09;5054268;28;20036;-61
2023/08/01 13:58:32;;;;;;;3.08;1.83;;;;;;;24.22;45.92;99047.25;5054116;28;20390;-62
2023/08/01 14:01:03;;;;;;;3.50;1.30;;;;;;;24.31;46.53;99047.41;5054352;28;20043;-62
2023/08/01 14:03:28;;;;;;;4.50;1.50;;;;;;;24.38;48.66;99044.34;5054351;28;20032;-63
2023/08/01 14:05:53;;;;;;;3.75;1.30;;;;;;;24.28;48.04;99046.09;5053858;28;20106;-62
2023/08/01 14:08:19;;;;;;;3.75;1.40;;;;;;;24.32;47.96;99046.28;5052549;28;20043;-62
2023/08/01 14:10:44;;;;;;;2.92;1.45;;;;;;;24.26;48.41;99037.41;5052483;28;20044;-62
2023/08/01 14:13:09;;;;;;;2.88;1.30;;;;;;;24.40;46.38;99029.38;5053917;28;20508;-62
2023/08/01 14:15:35;;;;;;;3.70;1.27;;;;;;;24.40;46.27;99032.09;5052754;28;20041;-62
2023/08/01 14:18:00;;;;;;;4.72;1.50;;;;;;;24.44;46.63;99037.72;5054053;28;20040;-64
2023/08/01 14:20:25;;;;;;;2.63;1.13;;;;;;;24.45;45.16;99026.56;5053436;28;20049;-64
2023/08/01 14:22:51;;;;;;;3.80;1.10;;;;;;;24.32;46.39;99057.16;5052603;28;20033;-64
2023/08/01 14:25:16;;;;;;;2.33;1.42;;;;;;;24.22;46.47;99047.25;5053735;28;20498;-64
2023/08/01 14:27:42;;;;;;;2.83;1.65;;;;;;;24.15;47.79;99051.44;5053740;28;20052;-64
2023/08/01 14:30:07;;;;;;;4.75;2.25;;;;;;;24.18;47.49;99050.84;5053324;28;20048;-64
2023/08/01 14:32:33;;;;;;;2.70;1.27;;;;;;;24.30;48.21;99053.94;5053599;28;20033;-62
2023/08/01 14:34:58;;;;;;;1.90;1.20;;;;;;;24.27;47.24;99043.66;5053616;28;20044;-62
2023/08/01 14:37:25;;;;;;;1.83;1.02;;;;;;;24.19;48.21;99047.00;5053447;28;20044;-63
2023/08/01 14:39:51;;;;;;;;;;;;;;;24.32;48.14;99049.00;5053655;28;20041;-62
2023/08/01 14:42:16;;;;;;;3.40;1.30;;;;;;;24.30;48.15;99067.56;5053520;28;19978;-65
2023/08/01 14:44:42;;;;;;;2.30;1.20;;;;;;;24.13;47.29;99057.16;5053417;28;20043;-64
2023/08/01 14:47:07;;;;;;;3.53;1.48;;;;;;;23.93;48.64;99079.97;5053269;28;20474;-65
2023/08/01 14:49:32;;;;;;;2.60;1.45;;;;;;;23.76;48.10;99063.28;5052978;28;20076;-65
2023/08/01 14:51:58;;;;;;;2.55;1.38;;;;;;;23.81;50.11;99068.69;5053087;28;20063;-61
2023/08/01 14:54:25;;;;;;;2.47;1.30;;;;;;;23.86;51.15;99071.31;5053286;28;20585;-62
2023/08/01 14:56:51;;;;;;;3.63;1.40;;;;;;;23.95;51.74;99066.09;5053063;28;20039;-63
2023/08/01 14:59:16;;;;;;;2.63;1.55;;;;;;;24.04;50.59;99065.13;5052910;28;20045;-63
2023/08/01 15:01:41;;;;;;;3.20;1.60;;;;;;;23.89;51.17;99078.91;5052096;28;20451;-63
2023/08/01 15:04:07;;;;;;;2.35;1.40;;;;;;;23.78;50.75;99069.25;5053147;28;20036;-63
2023/08/01 15:06:32;;;;;;;2.78;1.60;;;;;;;23.91;50.18;99068.56;5052057;28;20553;-62
2023/08/01 15:08:58;;;;;;;3.70;1.40;;;;;;;23.83;50.91;99061.84;5052698;28;20082;-62
2023/08/01 15:11:23;;;;;;;1.88;1.23;;;;;;;23.76;50.47;99063.28;5052789;28;20051;-62
2023/08/01 15:13:49;;;;;;;1.80;1.17;;;;;;;23.88;50.37;99065.63;5052939;28;20037;-63
2023/08/01 15:16:14;;;;;;;6.25;1.77;;;;;;;23.96;51.91;99060.34;5052638;28;20505;-63
2023/08/01 15:18:40;;;;;;;3.33;1.73;;;;;;;23.94;49.97;99073.44;5052581;28;20041;-62
2023/08/01 15:21:06;;;;;;;4.38;1.90;;;;;;;23.77;49.14;99082.03;5052449;28;20025;-62
2023/08/01 15:23:31;;;;;;;4.22;1.40;;;;;;;23.61;49.46;99075.16;5052767;28;20579;-63
2023/08/01 15:25:58;;;;;;;2.20;1.20;;;;;;;23.60;48.81;99070.75;5052550;28;20069;-63
2023/08/01 15:28:24;;;;;;;3.15;1.60;;;;;;;23.67;48.78;99086.75;5052350;28;20037;-63
2023/08/01 15:31:01;;;;;;;3.38;2.55;;;;;;;23.53;48.11;99073.81;5052427;28;20500;-63
2023/08/01 15:33:26;;;;;;;2.47;1.50;;;;;;;23.57;48.17;99063.19;5052869;28;20452;-62
2023/08/01 15:35:59;;;;;;;3.15;1.40;;;;;;;23.57;49.58;99071.34;5052378;28;20347;-63
2023/08/01 15:38:24;;;;;;;3.95;1.63;;;;;;;23.52;50.86;99063.22;5052191;28;20053;-62
2023/08/01 15:40:52;;;;;;;3.33;1.83;;;;;;;23.52;48.71;99072.19;5052209;28;20103;-63
2023/08/01 15:43:18;;;;;;;2.30;1.30;;;;;;;23.45;48.56;99077.16;5052315;28;20076;-64
2023/08/01 15:45:43;;;;;;;3.70;1.52;;;;;;;23.31;48.46;99075.38;5052161;28;20079;-63
2023/08/01 15:48:08;;;;;;;2.13;1.33;;;;;;;23.15;49.78;99086.38;5052277;28;20090;-62